createdAt,value
2019-05-26T00:01:27.127Z,15.50
2019-05-26T00:03:58.276Z,15.50
2019-05-26T00:06:29.269Z,15.40
2019-05-26T00:09:00.021Z,15.40
2019-05-26T00:11:30.699Z,15.40
2019-05-26T00:14:03.894Z,15.40
2019-05-26T00:16:34.657Z,15.40
2019-05-26T00:19:05.987Z,15.40
2019-05-26T00:21:37.747Z,15.40
2019-05-26T00:24:08.689Z,15.30
2019-05-26T00:26:40.456Z,15.20
2019-05-26T00:29:11.062Z,15.20
2019-05-26T00:31:42.748Z,15.20
2019-05-26T00:34:13.694Z,15.20
2019-05-26T00:36:44.392Z,15.20
2019-05-26T00:39:15.368Z,15.10
2019-05-26T00:41:46.734Z,15.10
2019-05-26T00:44:17.861Z,15.00
2019-05-26T00:46:48.066Z,14.90
2019-05-26T00:49:19.558Z,14.80
2019-05-26T00:51:50.667Z,14.70
2019-05-26T00:54:21.447Z,14.60
2019-05-26T00:56:52.273Z,14.60
2019-05-26T00:59:23.952Z,14.50
2019-05-26T01:01:55.502Z,14.40
2019-05-26T01:04:26.662Z,14.50
2019-05-26T01:06:57.790Z,14.40
2019-05-26T01:09:28.736Z,14.30
2019-05-26T01:12:00.297Z,14.20
2019-05-26T01:14:31.251Z,14.20
2019-05-26T01:17:01.580Z,14.10
2019-05-26T01:19:32.924Z,14.00
2019-05-26T01:22:03.618Z,14.00
2019-05-26T01:24:34.405Z,14.00
2019-05-26T01:27:05.946Z,13.90
2019-05-26T01:29:37.928Z,14.00
2019-05-26T01:32:09.455Z,14.00
2019-05-26T01:34:41.858Z,14.00
2019-05-26T01:37:12.599Z,14.00
2019-05-26T01:39:42.923Z,13.90
2019-05-26T01:42:14.080Z,14.00
2019-05-26T01:44:44.372Z,14.00
2019-05-26T01:47:15.306Z,13.90
2019-05-26T01:49:45.892Z,14.00
2019-05-26T01:52:17.230Z,13.90
2019-05-26T01:54:47.974Z,13.90
2019-05-26T01:57:18.231Z,13.90
2019-05-26T01:59:49.658Z,13.80
2019-05-26T02:02:20.099Z,13.70
2019-05-26T02:04:51.269Z,13.80
2019-05-26T02:07:22.281Z,13.70
2019-05-26T02:09:53.640Z,13.70
2019-05-26T02:12:24.581Z,13.60
2019-05-26T02:14:55.323Z,13.60
2019-05-26T02:17:25.599Z,13.60
2019-05-26T02:19:56.608Z,13.60
2019-05-26T02:22:27.327Z,13.60
2019-05-26T02:24:57.660Z,13.60
2019-05-26T02:27:27.949Z,13.50
2019-05-26T02:29:58.317Z,13.40
2019-05-26T02:32:28.628Z,13.40
2019-05-26T02:34:59.383Z,13.40
2019-05-26T02:37:30.168Z,13.40
2019-05-26T02:40:01.889Z,13.30
2019-05-26T02:42:35.297Z,13.20
2019-05-26T02:45:07.654Z,13.20
2019-05-26T02:47:38.592Z,13.20
2019-05-26T02:50:10.797Z,13.20
2019-05-26T02:52:41.929Z,13.10
2019-05-26T02:55:14.707Z,13.10
2019-05-26T02:57:45.447Z,13.10
2019-05-26T03:00:20.089Z,13.10
2019-05-26T03:02:51.233Z,13.10
2019-05-26T03:05:22.374Z,13.10
2019-05-26T03:07:54.499Z,13.00
2019-05-26T03:10:25.900Z,13.00
2019-05-26T03:12:59.514Z,13.00
2019-05-26T03:15:31.398Z,13.00
2019-05-26T03:18:05.277Z,13.00
2019-05-26T03:20:41.074Z,13.00
2019-05-26T03:23:12.307Z,12.90
2019-05-26T03:25:43.249Z,12.90
2019-05-26T03:28:14.127Z,12.80
2019-05-26T03:30:45.342Z,12.80
2019-05-26T03:33:16.619Z,12.90
2019-05-26T03:35:48.291Z,12.80
2019-05-26T03:38:18.937Z,12.80
2019-05-26T03:40:50.129Z,12.70
2019-05-26T03:43:22.299Z,12.70
2019-05-26T03:46:19.024Z,12.60
2019-05-26T03:48:51.840Z,12.60
2019-05-26T03:51:22.959Z,12.50
2019-05-26T03:53:54.150Z,12.50
2019-05-26T03:56:25.686Z,12.50
2019-05-26T03:58:56.638Z,12.40
2019-05-26T04:01:26.660Z,12.40
2019-05-26T04:03:57.934Z,12.40
2019-05-26T04:06:29.260Z,12.40
2019-05-26T04:09:00.404Z,12.40
2019-05-26T04:11:31.551Z,12.40
2019-05-26T04:14:02.522Z,12.40
2019-05-26T04:16:33.855Z,12.40
2019-05-26T04:19:04.800Z,12.40
2019-05-26T04:21:35.951Z,12.50
2019-05-26T04:24:07.135Z,12.50
2019-05-26T04:26:38.642Z,12.50
2019-05-26T04:29:10.002Z,12.60
2019-05-26T04:31:41.563Z,12.60
2019-05-26T04:34:12.210Z,12.70
2019-05-26T04:36:43.652Z,12.80
2019-05-26T04:39:15.206Z,12.80
2019-05-26T04:41:46.770Z,12.90
2019-05-26T04:44:17.463Z,13.00
2019-05-26T04:46:48.036Z,13.00
2019-05-26T04:49:19.136Z,13.10
2019-05-26T04:51:49.901Z,13.10
2019-05-26T04:54:19.862Z,13.20
2019-05-26T04:56:52.016Z,13.20
2019-05-26T04:59:23.363Z,13.30
2019-05-26T05:01:54.515Z,13.40
2019-05-26T05:04:25.561Z,13.40
2019-05-26T05:06:55.987Z,13.50
2019-05-26T05:09:27.321Z,13.60
2019-05-26T05:11:57.315Z,13.60
2019-05-26T05:14:28.211Z,13.70
2019-05-26T05:16:59.348Z,13.80
2019-05-26T05:19:30.705Z,13.90
2019-05-26T05:22:01.624Z,14.00
2019-05-26T05:24:33.221Z,14.00
2019-05-26T05:27:03.589Z,14.00
2019-05-26T05:29:34.607Z,14.10
2019-05-26T05:32:06.239Z,14.30
2019-05-26T05:34:37.054Z,14.30
2019-05-26T05:37:08.133Z,14.40
2019-05-26T05:39:39.490Z,14.50
2019-05-26T05:42:10.222Z,14.50
2019-05-26T05:44:41.083Z,14.60
2019-05-26T05:47:12.109Z,14.70
2019-05-26T05:49:43.064Z,14.80
2019-05-26T05:52:13.797Z,14.90
2019-05-26T05:54:44.265Z,15.00
2019-05-26T05:57:15.483Z,15.00
2019-05-26T05:59:46.110Z,15.10
2019-05-26T06:02:16.747Z,15.20
2019-05-26T06:04:47.904Z,15.20
2019-05-26T06:07:19.453Z,15.30
2019-05-26T06:09:50.034Z,15.30
2019-05-26T06:12:22.160Z,15.40
2019-05-26T06:14:53.469Z,15.50
2019-05-26T06:17:24.458Z,15.50
2019-05-26T06:19:55.811Z,15.60
2019-05-26T06:22:26.962Z,15.70
2019-05-26T06:24:58.007Z,15.70
2019-05-26T06:27:28.636Z,15.80
2019-05-26T06:30:00.006Z,15.90
2019-05-26T06:32:31.557Z,16.00
2019-05-26T06:35:06.104Z,16.10
2019-05-26T06:37:38.586Z,16.20
2019-05-26T06:40:09.921Z,16.30
2019-05-26T06:42:40.220Z,16.40
2019-05-26T06:45:12.407Z,16.50
2019-05-26T06:47:43.151Z,16.60
2019-05-26T06:50:15.327Z,16.70
2019-05-26T06:52:46.401Z,16.80
2019-05-26T06:55:17.616Z,16.90
2019-05-26T06:57:48.732Z,17.00
2019-05-26T07:00:20.523Z,17.10
2019-05-26T07:02:51.446Z,17.20
2019-05-26T07:05:22.614Z,17.30
2019-05-26T07:07:53.416Z,17.50
2019-05-26T07:10:24.498Z,17.60
2019-05-26T07:12:55.720Z,17.80
2019-05-26T07:15:27.012Z,18.00
2019-05-26T07:17:59.378Z,18.10
2019-05-26T07:20:30.122Z,18.20
2019-05-26T07:23:00.949Z,18.30
2019-05-26T07:25:31.344Z,18.30
2019-05-26T07:28:02.388Z,18.40
2019-05-26T07:30:34.134Z,18.50
2019-05-26T07:33:05.661Z,18.60
2019-05-26T07:35:36.392Z,18.60
2019-05-26T07:38:07.540Z,18.70
2019-05-26T07:40:38.134Z,18.70
2019-05-26T07:43:08.832Z,18.90
2019-05-26T07:45:39.211Z,19.00
2019-05-26T07:48:10.035Z,19.10
2019-05-26T07:50:41.235Z,19.30
2019-05-26T07:53:12.155Z,19.40
2019-05-26T07:55:43.064Z,19.40
2019-05-26T07:58:14.274Z,19.50
2019-05-26T08:00:45.006Z,19.60
2019-05-26T08:03:15.428Z,19.70
2019-05-26T08:05:46.488Z,19.80
2019-05-26T08:08:18.420Z,19.80
2019-05-26T08:10:49.609Z,20.00
2019-05-26T08:13:20.816Z,20.10
2019-05-26T08:15:55.203Z,20.10
2019-05-26T08:18:28.968Z,20.20
2019-05-26T08:21:02.633Z,20.30
2019-05-26T08:23:34.955Z,20.50
2019-05-26T08:26:08.270Z,20.60
2019-05-26T08:28:42.471Z,20.60
2019-05-26T08:31:13.989Z,20.70
2019-05-26T08:33:45.348Z,20.80
2019-05-26T08:36:16.651Z,21.00
2019-05-26T08:38:46.971Z,21.10
2019-05-26T08:41:17.715Z,21.10
2019-05-26T08:43:49.081Z,21.20
2019-05-26T08:46:20.213Z,21.20
2019-05-26T08:48:50.955Z,21.20
2019-05-26T08:51:22.303Z,21.20
2019-05-26T08:53:53.031Z,21.30
2019-05-26T08:56:24.401Z,21.40
2019-05-26T08:58:55.134Z,21.50
2019-05-26T09:01:26.005Z,21.60
2019-05-26T09:03:57.013Z,21.70
2019-05-26T09:06:28.183Z,21.90
2019-05-26T09:08:58.915Z,22.00
2019-05-26T09:11:29.293Z,21.90
2019-05-26T09:14:00.642Z,22.00
2019-05-26T09:16:31.071Z,22.10
2019-05-26T09:19:02.274Z,22.20
2019-05-26T09:21:33.835Z,22.00
2019-05-26T09:24:04.452Z,21.90
2019-05-26T09:26:35.939Z,21.90
2019-05-26T09:29:07.468Z,22.00
2019-05-26T09:31:38.328Z,21.90
2019-05-26T09:34:09.228Z,21.90
2019-05-26T09:36:39.875Z,22.20
2019-05-26T09:39:10.907Z,22.30
2019-05-26T09:41:41.601Z,22.60
2019-05-26T09:44:12.305Z,22.70
2019-05-26T09:46:43.470Z,22.80
2019-05-26T09:49:13.964Z,22.80
2019-05-26T09:51:44.756Z,22.80
2019-05-26T09:54:15.894Z,22.90
2019-05-26T09:56:47.054Z,23.40
2019-05-26T09:59:17.611Z,23.80
2019-05-26T10:01:48.469Z,24.00
2019-05-26T10:04:19.714Z,24.30
2019-05-26T10:06:50.849Z,24.80
2019-05-26T10:09:21.721Z,25.30
2019-05-26T10:11:52.066Z,25.70
2019-05-26T10:14:23.645Z,26.00
2019-05-26T10:16:54.998Z,26.50
2019-05-26T10:19:26.156Z,26.60
2019-05-26T10:21:57.512Z,26.60
2019-05-26T10:24:28.888Z,26.50
2019-05-26T10:26:59.998Z,26.60
2019-05-26T10:29:31.362Z,26.80
2019-05-26T10:32:01.609Z,27.30
2019-05-26T10:34:32.624Z,27.70
2019-05-26T10:37:03.732Z,27.80
2019-05-26T10:39:34.804Z,28.30
2019-05-26T10:42:05.643Z,28.60
2019-05-26T10:44:35.632Z,28.90
2019-05-26T10:47:06.936Z,28.80
2019-05-26T10:49:37.918Z,28.90
2019-05-26T10:52:08.896Z,29.00
2019-05-26T10:54:39.554Z,29.30
2019-05-26T10:57:10.300Z,29.50
2019-05-26T10:59:41.632Z,29.40
2019-05-26T11:02:12.703Z,29.60
2019-05-26T11:04:43.679Z,29.70
2019-05-26T11:07:14.210Z,30.00
2019-05-26T11:09:44.799Z,30.40
2019-05-26T11:12:15.366Z,30.60
2019-05-26T11:14:46.675Z,30.70
2019-05-26T11:17:17.518Z,30.80
2019-05-26T11:19:47.847Z,31.00
2019-05-26T11:22:18.768Z,31.20
2019-05-26T11:24:49.449Z,31.40
2019-05-26T11:27:21.902Z,31.60
2019-05-26T11:29:52.547Z,31.40
2019-05-26T11:32:23.427Z,31.40
2019-05-26T11:35:01.414Z,31.50
2019-05-26T11:37:26.529Z,31.00
2019-05-26T11:39:56.861Z,31.00
2019-05-26T11:42:28.507Z,30.90
2019-05-26T11:44:59.080Z,30.90
2019-05-26T11:47:29.384Z,31.10
2019-05-26T11:50:00.036Z,31.10
2019-05-26T11:52:32.502Z,31.20
2019-05-26T11:55:03.405Z,31.60
2019-05-26T11:57:36.434Z,31.60
2019-05-26T12:00:07.983Z,31.70
2019-05-26T12:02:39.532Z,32.20
2019-05-26T12:05:10.418Z,32.10
2019-05-26T12:07:42.043Z,31.60
2019-05-26T12:10:14.349Z,31.40
2019-05-26T12:12:45.361Z,31.30
2019-05-26T12:15:16.608Z,31.90
2019-05-26T12:17:47.663Z,32.70
2019-05-26T12:20:19.582Z,32.70
2019-05-26T12:22:50.419Z,32.70
2019-05-26T12:25:21.696Z,32.40
2019-05-26T12:27:53.274Z,32.70
2019-05-26T12:30:24.597Z,32.60
2019-05-26T12:32:55.688Z,32.10
2019-05-26T12:35:42.611Z,32.00
2019-05-26T12:38:13.265Z,32.30
2019-05-26T12:40:43.908Z,32.30
2019-05-26T12:43:15.796Z,31.90
2019-05-26T12:45:48.119Z,31.40
2019-05-26T12:48:19.250Z,31.30
2019-05-26T12:50:49.793Z,31.30
2019-05-26T12:53:20.323Z,32.10
2019-05-26T12:55:51.678Z,32.80
2019-05-26T12:58:23.047Z,33.20
2019-05-26T13:00:54.989Z,33.20
2019-05-26T13:03:25.325Z,32.70
2019-05-26T13:05:56.728Z,32.70
2019-05-26T13:08:27.571Z,33.10
2019-05-26T13:10:58.441Z,33.40
2019-05-26T13:13:29.095Z,33.20
2019-05-26T13:16:00.659Z,33.10
2019-05-26T13:18:32.024Z,33.60
2019-05-26T13:21:02.866Z,34.00
2019-05-26T13:23:33.486Z,33.60
2019-05-26T13:26:04.614Z,32.60
2019-05-26T13:28:34.958Z,32.00
2019-05-26T13:31:06.112Z,31.30
2019-05-26T13:33:36.852Z,31.30
2019-05-26T13:36:08.240Z,31.30
2019-05-26T13:38:39.718Z,32.00
2019-05-26T13:41:10.286Z,32.60
2019-05-26T13:43:41.459Z,32.90
2019-05-26T13:46:12.796Z,33.10
2019-05-26T13:48:43.472Z,33.40
2019-05-26T13:51:14.326Z,33.40
2019-05-26T13:53:46.067Z,33.10
2019-05-26T13:56:17.401Z,32.60
2019-05-26T13:58:48.734Z,32.40
2019-05-26T14:01:19.828Z,32.30
2019-05-26T14:03:50.590Z,32.50
2019-05-26T14:06:21.366Z,32.50
2019-05-26T14:08:52.718Z,32.50
2019-05-26T14:11:23.291Z,32.20
2019-05-26T14:13:54.010Z,32.30
2019-05-26T14:16:27.398Z,32.20
2019-05-26T14:18:59.372Z,31.70
2019-05-26T14:21:29.874Z,31.10
2019-05-26T14:24:00.844Z,30.60
2019-05-26T14:26:31.986Z,30.70
2019-05-26T14:29:03.149Z,30.90
2019-05-26T14:31:33.874Z,30.80
2019-05-26T14:34:04.453Z,30.60
2019-05-26T14:36:38.253Z,30.50
2019-05-26T14:39:09.848Z,30.40
2019-05-26T14:41:40.412Z,30.30
2019-05-26T14:44:11.260Z,30.10
2019-05-26T14:46:42.407Z,29.80
2019-05-26T14:49:13.308Z,29.50
2019-05-26T14:51:44.300Z,29.20
2019-05-26T14:54:15.434Z,29.00
2019-05-26T14:56:46.379Z,28.90
2019-05-26T14:59:17.208Z,28.70
2019-05-26T15:01:48.287Z,28.70
2019-05-26T15:04:20.023Z,28.60
2019-05-26T15:06:50.967Z,28.50
2019-05-26T15:09:25.175Z,28.30
2019-05-26T15:11:54.499Z,28.20
2019-05-26T15:14:25.237Z,28.30
2019-05-26T15:16:56.380Z,28.20
2019-05-26T15:19:27.593Z,28.00
2019-05-26T15:21:59.153Z,27.90
2019-05-26T15:24:30.655Z,27.70
2019-05-26T15:27:01.945Z,27.60
2019-05-26T15:29:34.547Z,27.60
2019-05-26T15:32:06.545Z,27.70
2019-05-26T15:34:38.111Z,27.70
2019-05-26T15:37:09.317Z,27.90
2019-05-26T15:39:40.512Z,27.90
2019-05-26T15:42:11.226Z,27.70
2019-05-26T15:44:41.907Z,27.60
2019-05-26T15:47:12.146Z,27.50
2019-05-26T15:49:42.759Z,27.50
2019-05-26T15:52:14.016Z,27.30
2019-05-26T15:54:44.799Z,27.20
2019-05-26T15:57:15.871Z,27.30
2019-05-26T15:59:46.467Z,27.40
2019-05-26T16:02:17.925Z,27.30
2019-05-26T16:04:49.485Z,27.40
2019-05-26T16:07:20.943Z,27.30
2019-05-26T16:09:51.929Z,27.30
2019-05-26T16:12:27.722Z,27.10
2019-05-26T16:14:59.151Z,26.90
2019-05-26T16:17:30.305Z,26.70
2019-05-26T16:20:01.292Z,26.60
2019-05-26T16:22:32.384Z,26.60
2019-05-26T16:25:03.546Z,26.70
2019-05-26T16:27:35.907Z,26.70
2019-05-26T16:30:07.449Z,26.60
2019-05-26T16:32:38.620Z,26.60
2019-05-26T16:35:10.350Z,26.30
2019-05-26T16:37:41.938Z,25.90
2019-05-26T16:40:13.503Z,25.70
2019-05-26T16:42:45.881Z,25.60
2019-05-26T16:45:18.464Z,25.50
2019-05-26T16:47:49.433Z,25.40
2019-05-26T16:50:19.858Z,25.40
2019-05-26T16:52:54.443Z,25.30
2019-05-26T16:55:24.286Z,25.30
2019-05-26T16:57:55.839Z,25.10
2019-05-26T17:00:26.679Z,24.90
2019-05-26T17:02:57.718Z,24.80
2019-05-26T17:05:29.644Z,24.70
2019-05-26T17:08:00.570Z,24.80
2019-05-26T17:10:32.578Z,24.90
2019-05-26T17:13:04.968Z,24.90
2019-05-26T17:15:37.380Z,24.80
2019-05-26T17:18:08.977Z,24.60
2019-05-26T17:20:41.103Z,24.50
2019-05-26T17:23:12.399Z,24.30
2019-05-26T17:25:43.811Z,24.20
2019-05-26T17:28:14.410Z,24.00
2019-05-26T17:30:45.896Z,23.80
2019-05-26T17:33:17.017Z,23.60
2019-05-26T17:35:48.182Z,23.40
2019-05-26T17:38:19.002Z,23.30
2019-05-26T17:40:50.072Z,23.20
2019-05-26T17:43:20.379Z,23.20
2019-05-26T17:45:50.767Z,23.10
2019-05-26T17:48:21.787Z,23.00
2019-05-26T17:50:52.762Z,23.00
2019-05-26T17:53:23.107Z,22.90
2019-05-26T17:55:54.044Z,22.80
2019-05-26T17:58:25.019Z,22.60
2019-05-26T18:00:55.581Z,22.50
2019-05-26T18:03:26.507Z,22.50
2019-05-26T18:05:57.893Z,22.40
2019-05-26T18:08:29.193Z,22.40
2019-05-26T18:10:59.950Z,22.30
2019-05-26T18:13:31.313Z,22.40
2019-05-26T18:16:02.211Z,22.40
2019-05-26T18:18:32.697Z,22.40
2019-05-26T18:21:03.685Z,22.30
2019-05-26T18:23:34.468Z,22.30
2019-05-26T18:26:04.934Z,22.30
2019-05-26T18:28:35.838Z,22.20
2019-05-26T18:31:06.475Z,22.20
2019-05-26T18:33:37.838Z,22.10
2019-05-26T18:36:08.985Z,22.10
2019-05-26T18:38:40.065Z,22.00
2019-05-26T18:41:11.276Z,22.00
2019-05-26T18:43:42.021Z,21.90
2019-05-26T18:46:13.375Z,21.90
2019-05-26T18:48:44.175Z,21.80
2019-05-26T18:51:15.669Z,21.80
2019-05-26T18:53:46.399Z,21.80
2019-05-26T18:56:17.709Z,21.70
2019-05-26T18:58:48.561Z,21.70
2019-05-26T19:01:19.857Z,21.70
2019-05-26T19:03:50.986Z,21.70
2019-05-26T19:06:22.563Z,21.60
2019-05-26T19:08:53.897Z,21.60
2019-05-26T19:11:25.065Z,21.60
2019-05-26T19:13:56.018Z,21.50
2019-05-26T19:16:27.148Z,21.50
2019-05-26T19:18:58.361Z,21.40
2019-05-26T19:21:30.075Z,21.40
2019-05-26T19:24:01.183Z,21.40
2019-05-26T19:26:31.920Z,21.30
2019-05-26T19:29:02.836Z,21.20
2019-05-26T19:31:33.799Z,21.10
2019-05-26T19:34:05.563Z,21.10
2019-05-26T19:36:36.746Z,20.90
2019-05-26T19:39:09.910Z,20.90
2019-05-26T19:41:41.294Z,20.80
2019-05-26T19:44:13.873Z,20.80
2019-05-26T19:46:45.673Z,20.70
2019-05-26T19:49:16.582Z,20.60
2019-05-26T19:51:47.356Z,20.50
2019-05-26T19:54:18.471Z,20.40
2019-05-26T19:56:49.654Z,20.40
2019-05-26T19:59:20.966Z,20.30
2019-05-26T20:01:52.524Z,20.20
2019-05-26T20:04:23.507Z,20.10
2019-05-26T20:06:54.808Z,20.00
2019-05-26T20:09:25.832Z,19.90
2019-05-26T20:11:56.666Z,19.80
2019-05-26T20:14:27.877Z,19.70
2019-05-26T20:16:58.759Z,19.70
2019-05-26T20:19:29.960Z,19.60
2019-05-26T20:22:01.338Z,19.50
2019-05-26T20:24:31.823Z,19.40
2019-05-26T20:27:03.439Z,19.30
2019-05-26T20:29:34.766Z,19.20
2019-05-26T20:32:06.115Z,19.10
2019-05-26T20:34:36.421Z,19.10
2019-05-26T20:37:06.762Z,19.00
2019-05-26T20:39:38.322Z,19.00
2019-05-26T20:42:09.296Z,18.90
2019-05-26T20:44:40.077Z,18.90
2019-05-26T20:47:11.364Z,18.80
2019-05-26T20:49:45.725Z,18.80
2019-05-26T20:52:15.662Z,18.70
2019-05-26T20:54:46.850Z,18.70
2019-05-26T20:57:18.005Z,18.70
2019-05-26T20:59:47.925Z,18.70
2019-05-26T21:02:18.286Z,18.60
2019-05-26T21:04:49.247Z,18.60
2019-05-26T21:07:21.144Z,18.60
2019-05-26T21:09:51.898Z,18.60
2019-05-26T21:12:23.250Z,18.60
2019-05-26T21:14:55.016Z,18.50
2019-05-26T21:17:26.291Z,18.50
2019-05-26T21:19:57.713Z,18.50
2019-05-26T21:22:28.447Z,18.40
2019-05-26T21:24:59.653Z,18.40
2019-05-26T21:27:30.690Z,18.40
2019-05-26T21:30:00.949Z,18.40
2019-05-26T21:32:31.882Z,18.40
2019-05-26T21:35:02.966Z,18.40
2019-05-26T21:37:33.845Z,18.30
2019-05-26T21:40:05.330Z,18.30
2019-05-26T21:42:35.961Z,18.30
2019-05-26T21:45:08.824Z,18.20
2019-05-26T21:47:39.354Z,18.20
2019-05-26T21:50:11.269Z,18.10
2019-05-26T21:52:42.241Z,18.10
2019-05-26T21:55:13.590Z,18.00
2019-05-26T21:57:44.577Z,18.00
2019-05-26T22:00:18.948Z,18.00
2019-05-26T22:02:50.893Z,18.00
2019-05-26T22:05:22.271Z,18.10
2019-05-26T22:07:53.446Z,18.10
2019-05-26T22:10:24.772Z,18.10
2019-05-26T22:12:55.572Z,18.20
2019-05-26T22:15:26.908Z,18.20
2019-05-26T22:17:57.815Z,18.20
2019-05-26T22:20:28.961Z,18.20
2019-05-26T22:22:59.246Z,18.20
2019-05-26T22:25:30.049Z,18.20
2019-05-26T22:28:01.058Z,18.20
2019-05-26T22:30:32.329Z,18.20
2019-05-26T22:33:03.264Z,18.20
2019-05-26T22:35:34.627Z,18.10
2019-05-26T22:38:05.680Z,18.10
2019-05-26T22:40:37.130Z,18.10
2019-05-26T22:43:08.472Z,18.10
2019-05-26T22:45:40.028Z,18.10
2019-05-26T22:48:10.972Z,18.10
2019-05-26T22:50:41.726Z,18.10
2019-05-26T22:53:13.066Z,18.10
2019-05-26T22:55:44.218Z,18.20
2019-05-26T22:58:15.975Z,18.10
2019-05-26T23:00:47.570Z,18.10
2019-05-26T23:03:18.686Z,18.10
2019-05-26T23:05:50.040Z,18.10
2019-05-26T23:08:21.816Z,18.10
2019-05-26T23:10:54.790Z,18.00
2019-05-26T23:13:25.946Z,18.00
2019-05-26T23:15:57.286Z,18.10
2019-05-26T23:18:29.051Z,18.00
2019-05-26T23:20:59.994Z,18.00
2019-05-26T23:23:30.333Z,18.00
2019-05-26T23:26:01.464Z,18.00
2019-05-26T23:28:32.826Z,17.90
2019-05-26T23:31:03.578Z,17.80
2019-05-26T23:33:35.130Z,17.70
2019-05-26T23:36:06.472Z,17.70
2019-05-26T23:38:37.436Z,17.60
2019-05-26T23:41:08.127Z,17.50
2019-05-26T23:43:39.062Z,17.50
2019-05-26T23:46:10.454Z,17.40
2019-05-26T23:48:40.827Z,17.30
2019-05-26T23:51:11.926Z,17.30
2019-05-26T23:53:43.493Z,17.20
2019-05-26T23:56:14.923Z,17.10
2019-05-26T23:58:45.584Z,17.00
